Time;durP1;ratioP1;P1;durP2;ratioP2;P2;SDS_P1;SDS_P2;PMS_P1;PMS_P2;Temp;Humidity;BMP_temperature;BMP_pressure;BME280_temperature;BME280_humidity;BME280_pressure;Samples;Min_cycle;Max_cycle;Signal;HPM_P1;HPM_P2
2023/12/26 00:11:27;;;;;;;11.30;7.10;;;;;;;7.57;99.56;97763.02;435246;1256;97488;-40
2023/12/26 00:21:35;;;;;;;5.40;2.60;;;;;;;7.53;99.78;97753.88;435151;1257;111176;-40
2023/12/26 00:31:43;;;;;;;4.20;1.40;;;;;;;7.49;99.87;97752.01;435171;1255;107975;-42
2023/12/26 00:41:49;;;;;;;1.70;0.80;;;;;;;7.46;99.84;97735.07;435191;1256;97573;-40
2023/12/26 00:51:55;;;;;;;4.30;1.20;;;;;;;7.45;99.99;97737.15;434921;1256;320773;-41
2023/12/26 01:02:03;;;;;;;7.30;2.70;;;;;;;7.43;99.97;97735.26;434987;1257;97898;-40
2023/12/26 01:12:07;;;;;;;5.80;2.80;;;;;;;7.43;100.00;97734.20;434943;1265;109048;-40
2023/12/26 01:22:13;;;;;;;3.80;3.00;;;;;;;7.44;100.00;97740.13;435195;1257;109663;-40
2023/12/26 01:32:21;;;;;;;5.40;3.80;;;;;;;7.45;100.00;97739.26;435174;1258;98110;-40
2023/12/26 01:42:28;;;;;;;6.90;4.20;;;;;;;7.49;100.00;97723.27;435219;1252;107345;-40
2023/12/26 01:52:38;;;;;;;7.40;5.00;;;;;;;7.52;100.00;97716.66;435148;1257;98120;-40
2023/12/26 02:02:47;;;;;;;6.80;4.90;;;;;;;7.57;100.00;97712.67;435274;1256;110497;-40
2023/12/26 02:12:55;;;;;;;6.20;5.20;;;;;;;7.68;100.00;97706.89;435175;1264;106747;-41
2023/12/26 02:23:02;;;;;;;5.60;4.50;;;;;;;7.78;100.00;97683.77;435074;1264;97905;-40
2023/12/26 02:33:11;;;;;;;8.00;4.20;;;;;;;7.84;100.00;97669.00;435994;1253;109221;-40
2023/12/26 02:53:24;;;;;;;6.00;4.60;;;;;;;7.95;100.00;97638.44;435975;1253;109925;-41
2023/12/26 03:13:37;;;;;;;4.20;2.70;;;;;;;8.05;100.00;97615.50;435912;1253;97226;-39
2023/12/26 03:23:45;;;;;;;11.40;4.50;;;;;;;8.07;100.00;97606.02;435971;1250;107997;-38
2023/12/26 03:33:52;;;;;;;5.50;2.20;;;;;;;8.10;100.00;97591.99;436034;1253;97867;-40
2023/12/26 04:04:11;;;;;;;1.50;1.00;;;;;;;8.24;100.00;97554.66;435912;1253;97915;-39
2023/12/26 04:14:18;;;;;;;3.50;1.90;;;;;;;8.27;100.00;97558.02;435948;1251;107244;-40
2023/12/26 04:24:25;;;;;;;4.60;4.10;;;;;;;8.24;100.00;97545.86;436031;1249;96648;-40
2023/12/26 04:34:32;;;;;;;2.90;2.20;;;;;;;8.16;100.00;97537.02;435884;1253;110774;-40
2023/12/26 04:44:40;;;;;;;4.10;1.90;;;;;;;8.11;100.00;97528.56;435858;1253;109257;-40
2023/12/26 04:54:48;;;;;;;3.30;1.90;;;;;;;8.05;100.00;97509.87;436253;1250;96666;-39
2023/12/26 05:04:55;;;;;;;2.60;2.10;;;;;;;8.05;100.00;97499.72;435977;1253;107466;-40
2023/12/26 05:15:03;;;;;;;3.20;2.00;;;;;;;8.09;100.00;97491.84;436060;1250;97477;-40
2023/12/26 05:25:11;;;;;;;2.70;2.00;;;;;;;8.13;100.00;97481.14;435855;1252;110856;-40
2023/12/26 05:35:19;;;;;;;2.20;1.70;;;;;;;8.15;100.00;97469.32;435857;1253;107836;-41
2023/12/26 05:45:26;;;;;;;1.90;1.70;;;;;;;8.17;100.00;97457.55;435782;1253;96627;-40
2023/12/26 06:05:39;;;;;;;2.50;1.20;;;;;;;8.19;100.00;97443.41;435882;1253;97750;-40
2023/12/26 06:15:45;;;;;;;1.90;1.30;;;;;;;8.12;100.00;97447.59;435965;1249;110477;-41
2023/12/26 06:25:51;;;;;;;2.00;1.40;;;;;;;8.10;100.00;97446.66;435644;1253;107399;-39
2023/12/26 06:35:59;;;;;;;2.70;1.20;;;;;;;8.11;100.00;97447.64;436019;1253;100177;-41
2023/12/26 06:46:04;;;;;;;1.90;1.30;;;;;;;8.15;100.00;97455.79;435728;1252;109067;-41
2023/12/26 06:56:09;;;;;;;1.80;1.60;;;;;;;8.21;100.00;97456.44;435931;1249;97946;-40
2023/12/26 07:06:16;;;;;;;4.20;1.90;;;;;;;8.23;100.00;97463.27;435661;1250;109194;-39
2023/12/26 07:16:23;;;;;;;3.70;2.00;;;;;;;8.23;100.00;97480.64;435876;1253;107208;-40
2023/12/26 07:26:30;;;;;;;1.60;1.30;;;;;;;8.29;100.00;97486.42;435725;1253;97991;-40
2023/12/26 07:46:44;;;;;;;6.60;2.60;;;;;;;8.67;100.00;97496.33;435802;1253;96629;-40
2023/12/26 07:56:51;;;;;;;3.00;1.30;;;;;;;8.82;100.00;97506.33;435770;1253;110653;-39
2023/12/26 08:06:56;;;;;;;5.90;2.70;;;;;;;8.90;100.00;97507.20;435641;1253;108129;-39
2023/12/26 08:27:08;;;;;;;3.90;2.40;;;;;;;9.13;100.00;97520.96;435744;1253;110383;-39
2023/12/26 08:47:22;;;;;;;4.40;2.10;;;;;;;9.28;99.67;97539.64;435684;1253;110848;-40
2023/12/26 08:57:29;;;;;;;4.30;2.10;;;;;;;9.40;99.39;97560.45;435560;1253;109183;-42
2023/12/26 09:07:36;;;;;;;4.60;2.10;;;;;;;9.46;99.29;97577.77;435671;1252;97864;-40
2023/12/26 09:17:44;;;;;;;4.00;2.70;;;;;;;9.46;99.05;97582.37;435600;1253;107317;-40
2023/12/26 09:27:52;;;;;;;3.60;2.30;;;;;;;9.45;98.73;97594.98;435591;1250;100141;-39
2023/12/26 09:37:59;;;;;;;10.10;4.50;;;;;;;9.53;98.28;97601.70;435846;1253;110744;-40
2023/12/26 09:48:05;;;;;;;10.70;4.30;;;;;;;9.60;98.07;97603.20;435524;1253;109309;-40
2023/12/26 10:08:19;;;;;;;8.20;3.70;;;;;;;9.67;97.42;97599.05;435469;1253;109919;-39
2023/12/26 10:18:27;;;;;;;7.30;4.50;;;;;;;9.77;97.36;97615.90;435432;1266;109110;-41
2023/12/26 10:28:34;;;;;;;6.50;3.40;;;;;;;9.80;96.64;97618.04;435644;1251;97480;-39
2023/12/26 10:38:42;;;;;;;8.60;3.90;;;;;;;9.81;96.19;97625.44;435652;1253;108422;-40
2023/12/26 10:48:49;;;;;;;6.70;3.20;;;;;;;9.85;95.60;97634.13;435596;1251;97871;-39
2023/12/26 10:58:59;;;;;;;15.00;8.80;;;;;;;9.82;94.86;97641.08;435633;1250;110185;-39
2023/12/26 11:09:06;;;;;;;12.30;8.30;;;;;;;9.89;94.24;97647.64;435436;1254;107025;-40
2023/12/26 11:29:19;;;;;;;1.80;0.90;;;;;;;9.96;92.59;97663.55;435662;1250;110100;-39
2023/12/26 11:39:28;;;;;;;1.90;1.40;;;;;;;10.04;91.25;97678.86;435569;1253;107894;-41
2023/12/26 11:49:35;;;;;;;6.30;2.60;;;;;;;10.08;90.93;97688.61;435626;1253;97091;-40
2023/12/26 11:59:42;;;;;;;12.70;7.00;;;;;;;10.06;90.32;97696.35;435579;1249;110453;-40
2023/12/26 12:09:49;;;;;;;5.20;4.10;;;;;;;10.10;89.97;97705.31;435641;1253;108198;-40
2023/12/26 12:19:57;;;;;;;6.90;2.80;;;;;;;10.01;89.10;97705.02;435589;1253;97861;-40
2023/12/26 12:30:02;;;;;;;4.80;2.20;;;;;;;9.99;89.18;97711.51;435529;1253;110044;-40
2023/12/26 12:40:10;;;;;;;7.40;3.80;;;;;;;10.04;88.65;97717.36;435441;1253;109264;-40
2023/12/26 12:50:17;;;;;;;6.50;3.50;;;;;;;9.94;88.15;97731.62;435328;1251;344468;-41
2023/12/26 13:00:24;;;;;;;3.10;1.60;;;;;;;9.84;88.10;97753.98;435534;1253;110449;-40
2023/12/26 13:10:31;;;;;;;3.80;2.10;;;;;;;9.59;88.69;97786.88;435438;1253;108659;-40
2023/12/26 13:20:41;;;;;;;3.80;2.30;;;;;;;9.21;89.54;97823.27;435696;1253;96914;-40
2023/12/26 13:40:56;;;;;;;2.80;1.50;;;;;;;8.65;91.06;97839.09;435550;1251;107424;-40
2023/12/26 13:51:03;;;;;;;5.20;2.20;;;;;;;8.43;91.50;97840.27;435511;1253;96640;-39
2023/12/26 14:01:10;;;;;;;4.20;1.80;;;;;;;8.32;91.83;97852.21;435542;1253;109512;-40
2023/12/26 14:11:18;;;;;;;4.90;1.70;;;;;;;8.20;91.97;97875.08;435620;1264;97871;-40
2023/12/26 14:21:25;;;;;;;6.10;1.90;;;;;;;8.16;92.11;97875.58;435507;1253;110453;-40
2023/12/26 14:31:33;;;;;;;6.00;2.00;;;;;;;8.03;92.26;97897.36;435573;1253;107681;-39
2023/12/26 14:41:41;;;;;;;19.20;10.70;;;;;;;7.89;92.62;97921.67;435649;1253;97892;-39
2023/12/26 14:51:48;;;;;;;27.80;12.30;;;;;;;7.80;92.84;97938.92;435681;1250;110865;-40
2023/12/26 15:01:55;;;;;;;12.80;6.20;;;;;;;7.78;92.99;97941.94;435653;1253;110017;-40
2023/12/26 15:22:09;;;;;;;13.70;7.30;;;;;;;7.77;93.16;97950.39;435576;1253;108146;-40
2023/12/26 15:42:22;;;;;;;12.00;5.90;;;;;;;7.71;93.35;97955.55;435695;1254;109845;-39
2023/12/26 16:02:32;;;;;;;5.70;3.30;;;;;;;7.43;93.43;97988.29;435659;1253;97867;-40
2023/12/26 16:12:45;;;;;;;12.60;6.30;;;;;;;7.29;93.77;98013.60;435707;1251;107570;-41
2023/12/26 16:22:51;;;;;;;13.60;5.80;;;;;;;7.27;94.13;98030.48;435697;1261;96676;-41
2023/12/26 16:32:56;;;;;;;30.50;11.50;;;;;;;7.39;94.57;98034.92;435647;1253;109270;-40
2023/12/26 16:43:04;;;;;;;25.80;10.20;;;;;;;7.47;94.83;98047.25;435667;1256;107466;-40
2023/12/26 16:53:10;;;;;;;10.70;4.40;;;;;;;7.34;95.05;98057.20;435677;1253;97906;-40
2023/12/26 17:03:17;;;;;;;19.60;7.30;;;;;;;6.95;94.95;98062.56;435692;1253;108260;-39
2023/12/26 17:13:25;;;;;;;34.50;14.40;;;;;;;6.70;95.45;98075.02;435654;1251;97865;-44
2023/12/26 17:23:34;;;;;;;24.60;9.90;;;;;;;6.66;95.41;98079.99;435605;1253;109939;-39
2023/12/26 17:33:40;;;;;;;16.80;7.30;;;;;;;6.61;95.62;98083.18;435607;1262;107792;-39
2023/12/26 17:43:48;;;;;;;12.20;6.30;;;;;;;6.51;95.50;98097.11;435625;1251;97860;-40
2023/12/26 18:03:58;;;;;;;5.00;3.20;;;;;;;6.44;96.05;98116.73;435655;1253;97863;-40
2023/12/26 18:24:08;;;;;;;5.90;2.70;;;;;;;6.25;95.64;98130.81;435807;1262;107172;-40
2023/12/26 18:34:14;;;;;;;2.60;2.20;;;;;;;6.18;95.72;98149.34;435621;1263;97888;-39
2023/12/26 18:44:23;;;;;;;3.30;2.60;;;;;;;6.26;96.12;98157.99;435844;1253;107674;-40
2023/12/26 18:54:30;;;;;;;7.90;4.70;;;;;;;6.29;96.34;98172.47;435870;1252;97902;-40
2023/12/26 19:24:51;;;;;;;8.80;4.60;;;;;;;6.14;95.67;98184.33;435842;1254;96673;-38
2023/12/26 19:34:58;;;;;;;8.50;3.20;;;;;;;5.99;95.51;98194.58;435772;1251;109196;-39
2023/12/26 19:45:06;;;;;;;4.10;2.00;;;;;;;5.85;95.32;98204.20;435928;1251;96638;-40
2023/12/26 19:55:16;;;;;;;6.60;3.20;;;;;;;5.82;95.02;98207.97;435818;1251;110076;-38
2023/12/26 20:05:20;;;;;;;;;;;;;;;5.78;94.85;98226.67;435909;1252;108491;-39
2023/12/26 20:15:28;;;;;;;6.20;2.60;;;;;;;5.69;94.81;98227.20;436001;1254;97456;-41
2023/12/26 20:25:35;;;;;;;5.40;1.60;;;;;;;5.67;94.11;98231.00;435944;1252;109786;-41
2023/12/26 20:45:50;;;;;;;5.70;1.90;;;;;;;5.53;93.12;98244.32;436001;1254;97864;-40
2023/12/26 20:55:57;;;;;;;2.20;1.30;;;;;;;5.51;92.47;98255.99;436094;1249;111519;-39
2023/12/26 21:56:37;;;;;;;9.20;2.50;;;;;;;5.35;89.15;98310.11;435958;1254;110632;-42
2023/12/26 22:16:51;;;;;;;10.00;3.70;;;;;;;5.40;88.23;98334.54;435968;1250;97874;-40
2023/12/26 22:26:59;;;;;;;12.30;4.90;;;;;;;5.51;88.26;98349.80;435723;1253;110043;-41
2023/12/26 22:37:06;;;;;;;12.20;4.90;;;;;;;5.52;87.87;98356.89;435847;1251;107504;-39
2023/12/26 22:47:12;;;;;;;8.40;2.50;;;;;;;5.73;87.14;98373.05;435536;1252;97793;-39
2023/12/26 22:57:19;;;;;;;11.30;4.40;;;;;;;5.94;86.82;98383.73;435997;1250;111695;-40
2023/12/26 23:07:25;;;;;;;10.80;3.40;;;;;;;6.01;86.86;98381.93;435997;1262;109466;-40
2023/12/26 23:17:31;;;;;;;5.90;2.70;;;;;;;6.03;86.65;98381.77;436071;1250;97522;-40
2023/12/26 23:27:39;;;;;;;4.30;1.50;;;;;;;6.15;86.37;98388.55;436058;1254;111543;-40
2023/12/26 23:37:46;;;;;;;5.50;1.80;;;;;;;6.18;86.46;98392.46;435951;1253;108614;-41
2023/12/26 23:57:58;;;;;;;3.60;1.50;;;;;;;6.11;85.40;98406.40;436029;1254;107766;-39
